Perry, Illinois
Current Conditions -  °F | °C
As of 12:55 PM on Monday 20 Oct 2014 (Local Time) from KPPQ Reporting Station
Clear Clear  
Wind Chill: 21°   Ceiling: Unl
Heat Index: 21°   Visibility: 10mi
Dew Point:   Wind: 13mph
Humidity: 39%   Direction: 330°NNW
Pressure: 29.98"   Gusts: NA
Location:  39.78°N, 90.75°W
Report Text: KPPQ 201755Z AUTO 33011KT 10SM CLR 21/06 A2998 RMK AO2 T02070064 10207 20125
Loading
Personal Weather Stations






























Interactive Weather Map
Tropical Storm Tracking
New forecast layout! Learn more

10-Day Weather Forecast

Advertisements
Track Severe Weather on mobile